Gr8 Escape — CFN5988 — position and weather

sailwx.info

Track history (hours):
 
Tides and Currents Weather Stations Pressure Air Temp Water Temp Dewpoint Dewpoint Depression Visibility Wind Speed Wind Dir Waves Ship Positions

Gr8 Escape

Last reported at 2017-Oct-28 00:27 UTC. Time now 2017-Dec-17 17:49 UTC.
Position N 49°18' W 123°08'.
Warning: this ship's position is 50 days out of date.

Length 13 m.

Type: Sailing vessel. MMSI: 316020948.

Date/timePositionNaut miles runAvg speedWind from/ knotsBaromVisibWave heightAir tempDewpointWater temp
2017-Oct-28 00:27N 49°18' W 123°08'0 0.0
2017-Oct-28 00:00N 49°18' W 123°08'0 0.0
2017-Oct-27 23:21N 49°18' W 123°08'0 0.0
2017-Oct-27 22:57N 49°18' W 123°08'0 0.0
2017-Oct-27 22:30N 49°18' W 123°08'0 0.0
2017-Oct-27 22:00N 49°18' W 123°08'0 0.0
2017-Oct-27 21:30N 49°18' W 123°08'0 0.0
2017-Oct-27 20:57N 49°18' W 123°08'0 0.0
2017-Oct-27 20:27N 49°18' W 123°08'0 0.0
2017-Oct-27 20:00N 49°18' W 123°08'0 0.0
2017-Oct-27 19:18N 49°18' W 123°08'0 0.0
2017-Oct-27 18:57N 49°18' W 123°08'0 0.0
2017-Oct-27 18:21N 49°18' W 123°08'0 0.0
2017-Oct-27 18:00N 49°18' W 123°08'0 0.0
2017-Oct-27 17:24N 49°18' W 123°08'0 0.0
2017-Oct-27 16:57N 49°18' W 123°08'0 0.0
2017-Oct-27 16:30N 49°18' W 123°08'0 0.0
2017-Oct-27 15:57N 49°18' W 123°08'0 0.0
2017-Oct-27 15:30N 49°18' W 123°08'0 0.0
2017-Oct-27 15:00N 49°18' W 123°08'0 0.0
2017-Oct-27 14:27N 49°18' W 123°08'0 0.0
2017-Oct-27 13:57N 49°18' W 123°08'0 0.0
2017-Oct-27 13:26N 49°18' W 123°08'0 0.0
2017-Oct-27 12:56N 49°18' W 123°08'0 0.0
2017-Oct-27 12:29N 49°18' W 123°08'0 0.0
2017-Oct-27 11:56N 49°18' W 123°08'0 0.0
2017-Oct-27 11:29N 49°18' W 123°08'0 0.0
2017-Oct-27 10:53N 49°18' W 123°08'0 0.0
2017-Oct-27 10:23N 49°18' W 123°08'0 0.0
2017-Oct-27 09:59N 49°18' W 123°08'0 0.0
2017-Oct-27 09:29N 49°18' W 123°08'0 0.0
2017-Oct-27 08:59N 49°18' W 123°08'0 0.0
2017-Oct-27 08:29N 49°18' W 123°08'0 0.0
2017-Oct-27 07:47N 49°18' W 123°08'0 0.0
2017-Oct-27 07:29N 49°18' W 123°08'0 0.0
2017-Oct-26 20:43N 49°18' W 123°08'0 1.2
2017-Oct-26 20:23N 49°18' W 123°07'1 3.6
2017-Oct-26 19:59N 49°19' W 123°08'3 5.8
2017-Oct-26 19:30N 49°20' W 123°12'3 5.6
2017-Oct-26 18:59N 49°20' W 123°17'3 5.9
2017-Oct-26 18:30N 49°23' W 123°19'1 1.1
2017-Oct-26 17:55N 49°23' W 123°20'0 0.0
2017-Oct-26 17:25N 49°23' W 123°20'0 0.0
2017-Oct-26 16:57N 49°23' W 123°20'0 0.0
2017-Oct-26 16:30N 49°23' W 123°20'0 0.0
2017-Oct-26 16:00N 49°23' W 123°20'0 0.0
2017-Oct-26 15:30N 49°23' W 123°20'0 0.0
2017-Oct-26 14:54N 49°23' W 123°20'0 0.0
2017-Oct-26 14:21N 49°23' W 123°20'0 0.0
2017-Oct-26 13:54N 49°23' W 123°20'0 0.0
2017-Oct-26 13:24N 49°23' W 123°20'0 0.0
2017-Oct-26 12:51N 49°23' W 123°20'0 0.0
2017-Oct-26 12:30N 49°23' W 123°20'0 0.0
2017-Oct-26 11:51N 49°23' W 123°20'0 0.0
2017-Oct-26 11:19N 49°23' W 123°20'0 0.0
2017-Oct-26 10:38N 49°23' W 123°20'0 0.0
2017-Oct-26 10:24N 49°23' W 123°20'0 0.0
2017-Oct-26 10:00N 49°23' W 123°20'0 0.0
2017-Oct-26 09:27N 49°23' W 123°20'0 0.0
2017-Oct-26 07:18N 49°23' W 123°20'0 0.0
2017-Oct-26 06:54N 49°23' W 123°20'0 0.0
2017-Oct-26 05:51N 49°23' W 123°20'0 0.0
2017-Oct-26 05:27N 49°23' W 123°20'0 0.0
2017-Oct-26 04:36N 49°23' W 123°20'0 0.1
2017-Oct-26 04:30N 49°23' W 123°20'0 0.0
2017-Oct-26 04:00N 49°23' W 123°20'0 0.0
2017-Oct-26 03:30N 49°23' W 123°20'0 0.0
2017-Oct-26 02:57N 49°23' W 123°20'0 0.0
2017-Oct-26 02:24N 49°23' W 123°20'0 0.0
2017-Oct-26 02:00N 49°23' W 123°20'0 0.0
2017-Oct-26 01:30N 49°23' W 123°20'0 0.0
2017-Oct-26 00:36N 49°23' W 123°20'0 0.1
2017-Oct-26 00:30N 49°23' W 123°20'0 0.0
2017-Oct-25 23:54N 49°23' W 123°20'0 0.0
2017-Oct-25 23:16N 49°23' W 123°20'0 0.0
2017-Oct-25 22:59N 49°23' W 123°20'0 0.0
2017-Oct-25 22:25N 49°23' W 123°20'1 1.9
2017-Oct-25 22:00N 49°23' W 123°19'3 6.5
2017-Oct-25 21:30N 49°20' W 123°16'3 7.0
2017-Oct-25 21:00N 49°19' W 123°11'  
Track history (hours):
 
Tides and Currents Weather Stations Pressure Air Temp Water Temp Dewpoint Dewpoint Depression Visibility Wind Speed Wind Dir Waves Ship Positions

Gr8 Escape

Last reported at 2017-Oct-28 00:27 UTC. Time now 2017-Dec-17 17:49 UTC.
Position N 49°18' W 123°08'.
Warning: this ship's position is 50 days out of date.

Length 13 m.

Type: Sailing vessel. MMSI: 316020948.

Date/timePositionNaut miles runAvg speedWind from/ knotsBaromVisibWave heightAir tempDewpointWater temp
2017-Oct-28 00:27N 49°18' W 123°08'0 0.0
2017-Oct-28 00:00N 49°18' W 123°08'0 0.0
2017-Oct-27 23:21N 49°18' W 123°08'0 0.0
2017-Oct-27 22:57N 49°18' W 123°08'0 0.0
2017-Oct-27 22:30N 49°18' W 123°08'0 0.0
2017-Oct-27 22:00N 49°18' W 123°08'0 0.0
2017-Oct-27 21:30N 49°18' W 123°08'0 0.0
2017-Oct-27 20:57N 49°18' W 123°08'0 0.0
2017-Oct-27 20:27N 49°18' W 123°08'0 0.0
2017-Oct-27 20:00N 49°18' W 123°08'0 0.0
2017-Oct-27 19:18N 49°18' W 123°08'0 0.0
2017-Oct-27 18:57N 49°18' W 123°08'0 0.0
2017-Oct-27 18:21N 49°18' W 123°08'0 0.0
2017-Oct-27 18:00N 49°18' W 123°08'0 0.0
2017-Oct-27 17:24N 49°18' W 123°08'0 0.0
2017-Oct-27 16:57N 49°18' W 123°08'0 0.0
2017-Oct-27 16:30N 49°18' W 123°08'0 0.0
2017-Oct-27 15:57N 49°18' W 123°08'0 0.0
2017-Oct-27 15:30N 49°18' W 123°08'0 0.0
2017-Oct-27 15:00N 49°18' W 123°08'0 0.0
2017-Oct-27 14:27N 49°18' W 123°08'0 0.0
2017-Oct-27 13:57N 49°18' W 123°08'0 0.0
2017-Oct-27 13:26N 49°18' W 123°08'0 0.0
2017-Oct-27 12:56N 49°18' W 123°08'0 0.0
2017-Oct-27 12:29N 49°18' W 123°08'0 0.0
2017-Oct-27 11:56N 49°18' W 123°08'0 0.0
2017-Oct-27 11:29N 49°18' W 123°08'0 0.0
2017-Oct-27 10:53N 49°18' W 123°08'0 0.0
2017-Oct-27 10:23N 49°18' W 123°08'0 0.0
2017-Oct-27 09:59N 49°18' W 123°08'0 0.0
2017-Oct-27 09:29N 49°18' W 123°08'0 0.0
2017-Oct-27 08:59N 49°18' W 123°08'0 0.0
2017-Oct-27 08:29N 49°18' W 123°08'0 0.0
2017-Oct-27 07:47N 49°18' W 123°08'0 0.0
2017-Oct-27 07:29N 49°18' W 123°08'0 0.0
2017-Oct-26 20:43N 49°18' W 123°08'0 1.2
2017-Oct-26 20:23N 49°18' W 123°07'1 3.6
2017-Oct-26 19:59N 49°19' W 123°08'3 5.8
2017-Oct-26 19:30N 49°20' W 123°12'3 5.6
2017-Oct-26 18:59N 49°20' W 123°17'3 5.9
2017-Oct-26 18:30N 49°23' W 123°19'1 1.1
2017-Oct-26 17:55N 49°23' W 123°20'0 0.0
2017-Oct-26 17:25N 49°23' W 123°20'0 0.0
2017-Oct-26 16:57N 49°23' W 123°20'0 0.0
2017-Oct-26 16:30N 49°23' W 123°20'0 0.0
2017-Oct-26 16:00N 49°23' W 123°20'0 0.0
2017-Oct-26 15:30N 49°23' W 123°20'0 0.0
2017-Oct-26 14:54N 49°23' W 123°20'0 0.0
2017-Oct-26 14:21N 49°23' W 123°20'0 0.0
2017-Oct-26 13:54N 49°23' W 123°20'0 0.0
2017-Oct-26 13:24N 49°23' W 123°20'0 0.0
2017-Oct-26 12:51N 49°23' W 123°20'0 0.0
2017-Oct-26 12:30N 49°23' W 123°20'0 0.0
2017-Oct-26 11:51N 49°23' W 123°20'0 0.0
2017-Oct-26 11:19N 49°23' W 123°20'0 0.0
2017-Oct-26 10:38N 49°23' W 123°20'0 0.0
2017-Oct-26 10:24N 49°23' W 123°20'0 0.0
2017-Oct-26 10:00N 49°23' W 123°20'0 0.0
2017-Oct-26 09:27N 49°23' W 123°20'0 0.0
2017-Oct-26 07:18N 49°23' W 123°20'0 0.0
2017-Oct-26 06:54N 49°23' W 123°20'0 0.0
2017-Oct-26 05:51N 49°23' W 123°20'0 0.0
2017-Oct-26 05:27N 49°23' W 123°20'0 0.0
2017-Oct-26 04:36N 49°23' W 123°20'0 0.1
2017-Oct-26 04:30N 49°23' W 123°20'0 0.0
2017-Oct-26 04:00N 49°23' W 123°20'0 0.0
2017-Oct-26 03:30N 49°23' W 123°20'0 0.0
2017-Oct-26 02:57N 49°23' W 123°20'0 0.0
2017-Oct-26 02:24N 49°23' W 123°20'0 0.0
2017-Oct-26 02:00N 49°23' W 123°20'0 0.0
2017-Oct-26 01:30N 49°23' W 123°20'0 0.0
2017-Oct-26 00:36N 49°23' W 123°20'0 0.1
2017-Oct-26 00:30N 49°23' W 123°20'0 0.0
2017-Oct-25 23:54N 49°23' W 123°20'0 0.0
2017-Oct-25 23:16N 49°23' W 123°20'0 0.0
2017-Oct-25 22:59N 49°23' W 123°20'0 0.0
2017-Oct-25 22:25N 49°23' W 123°20'1 1.9
2017-Oct-25 22:00N 49°23' W 123°19'3 6.5
2017-Oct-25 21:30N 49°20' W 123°16'3 7.0
2017-Oct-25 21:00N 49°19' W 123°11'  

Dump ship's entire track history